KUTS

Details ICAO KUTS
Name Huntsville Muni
Region United States
Timezone America/Chicago (UTC-5.0)
Plans Departing 8
Arriving 4
Stats Elevation 363 ft / 111 m (AMSL)
Location 30.746883° -95.587154°
Runways 1
Magnetic Variation 2.542° E
Sunrise 2018-05-27 11:22:58 UTC / 2018-05-27 06:22:58 Local
Sunset 2018-05-28 01:18:59 UTC / 2018-05-27 20:18:59 Local
Advertisement - Login to hide

Runways

ID Width Length Bearing (true) Bearing (mag) Surface Threshold Offset Overrun Length
18 98 ft / 30 m 5,023 ft / 1,531 m 185.76° 183.22° Asphalt 0 ft / 0 m 0 ft / 0 m
36 98 ft / 30 m 5,023 ft / 1,531 m 5.76° 3.22° Asphalt 0 ft / 0 m 0 ft / 0 m

Map

Weather


0- 5 10 15 20 25 30 35+ Temperature / ° C

Clouds and Precipitation
Forecast for 2018-05-28 00:00 UTC. Updated 5 hours ago

Ground ~20,000 ft ~40,000 ft Winds

METAR

KUTS 280253Z AUTO 00000KT 10SM BKN060 28/23 A2983 RMK AO2 SLP094 T02830228 53012 $

TAF

TAF KUTS 272345Z 2800/2824 06005KT P6SM SCT090 FM280200 VRB03KT P6SM SCT250 FM281500 34005KT P6SM SCT045

Frequencies

Recorded 119.42 MHz ASOS
Unicom 122.80 MHz CTAF/UNICOM
Warning: Do not use this data for real-world aviation or navigation. No guarantee of current accuracy is given.